Warnings issued by the Bureau of Meteorology Current Australian State Warnings Webcam Fire Incidents issued by Tasmania Fire Service Current Tasmanian Fire Incidents

Nearby METAR Reports

 

YMHB - Hobart/Tasmania, Australia
Distance from station: NE 48km
Updated: 29/07/2014 20:04
Light rain, Showers, Mostly cloudy
Light rain, Showers, Mostly cloudy
 Wind from NNW
Wind: NNW 30 km/h, Gust: 50 km/h
Temperature: 11°C
Dew Point: 4°C
Humidity: 62%
Barometer: 987 hPa
Summary: Light rain, Showers
Clouds: Mostly cloudy
Visibility: 9 km
Cloud details: Mostly cloudy 1219 m
2014/07/29 10:04 YMHB 291004Z 33016G27KT 9000 -SHRA BKN040 11/04 Q0987
YMLT - Launceston Airpo, Australia
Distance from station: N 176km
Updated: 29/07/2014 19:46
Light rain, Showers, Mostly cloudy
Light rain, Showers, Mostly cloudy
 Wind from WNW
Wind: WNW 44 km/h, Gust: 65 km/h
Temperature: 10°C
Wind Chill: 6°C
Dew Point: 6°C
Humidity: 76%
Barometer: 994 hPa
Summary: Light rain, Showers
Clouds: Mostly cloudy
Visibility: 10 km
Cloud details: Partly cloudy 792 m
Partly cloudy 1158 m
Mostly cloudy 1554 m
2014/07/29 09:46 YMLT 290946Z AUTO 29024G35KT 9999 -SHRA SCT026 SCT038 BKN051 10/06 Q0994 RESHRA
YMAV - Avalon Airport, Australia
Distance from station: NNW 601km
Updated: 29/07/2014 20:00
Overcast
Overcast
 Wind from NW
Wind: NW 31 km/h, Gust: 50 km/h
Temperature: 16°C
Dew Point: 10°C
Humidity: 68%
Barometer: 1008 hPa
Clouds: Overcast
Visibility: 10 km
Cloud details: Partly cloudy 1341 m
Mostly cloudy 2164 m
Overcast 2530 m
2014/07/29 10:00 YMAV 291000Z AUTO 32017G27KT 9999 // SCT044 BKN071 OVC083 16/10 Q1008
 
YMML - Melbourne Intl A, Australia
Distance from station: NNW 631km
Updated: 29/07/2014 20:00
Mostly cloudy
Mostly cloudy
 Wind from N
Wind: N 26 km/h
Temperature: 15°C
Dew Point: 9°C
Humidity: 68%
Barometer: 1009 hPa
Clouds: Mostly cloudy
Visibility: 10 km
Cloud details: Few Clouds 1128 m
Mostly cloudy 2621 m
2014/07/29 10:00 YMML 291000Z 35014KT 9999 FEW037 BKN086 15/09 Q1009 FM1000 MOD/SEV TURB BLW 5000FT
YWGT - Wangaratta Arp, Australia
Distance from station: N 744km
Updated: 29/07/2014 20:00

 Wind from NW
Wind: NW 24 km/h
Temperature: 13°C
Dew Point: 10°C
Humidity: 82%
Barometer: 1015 hPa
2014/07/29 10:00 YWGT 291000Z AUTO 31013KT //// // ////// 13/10 Q1015
YSWG - Wagga Wagga(Cv/M, Australia
Distance from station: N 885km
Updated: 29/07/2014 20:00
Clear
Clear
 Wind from E
Wind: E 6 km/h
Temperature: 8°C
Dew Point: 5°C
Humidity: 82%
Barometer: 1017 hPa
Clouds: Clear
Visibility: 10 km
2014/07/29 10:00 YSWG 291000Z AUTO 08003KT 9999 // NCD 08/05 Q1017
 
YSCB - Canberra (civ/Mi, Australia
Distance from station: NNE 888km
Updated: 29/07/2014 20:00
Few Clouds
Few Clouds
 Wind from WNW
Wind: WNW 35 km/h
Temperature: 12°C
Dew Point: 4°C
Humidity: 58%
Barometer: 1015 hPa
Clouds: Few Clouds
Visibility: 10 km
Cloud details: Few Clouds 914 m
2014/07/29 10:00 YSCB 291000Z 30019KT 9999 FEW030 12/04 Q1015
YSNW - Nowra (aus-Navy), Australia
Distance from station: NNE 954km
Updated: 29/07/2014 19:00

 Wind from NW
Wind: NW 15 km/h
Temperature: 18°C
Dew Point: 4°C
Humidity: 40%
Barometer: 1013 hPa
Visibility: 10 km
2014/07/29 09:00 YSNW 290900Z 31008KT 9999 VV/// 18/04 Q1013 FM0900 MOD/SEV TURB BLW 5000FT